createdAt,value
2019-06-26T00:02:24.975Z,20.20
2019-06-26T00:05:27.867Z,23.43
2019-06-26T00:08:29.784Z,18.00
2019-06-26T00:11:31.705Z,17.73
2019-06-26T00:14:33.727Z,20.07
2019-06-26T00:17:35.578Z,17.50
2019-06-26T00:20:38.517Z,17.50
2019-06-26T00:23:40.435Z,18.53
2019-06-26T00:26:42.442Z,20.70
2019-06-26T00:29:44.367Z,21.27
2019-06-26T00:32:46.349Z,23.13
2019-06-26T00:35:48.295Z,25.33
2019-06-26T00:38:50.542Z,23.30
2019-06-26T00:41:52.503Z,18.17
2019-06-26T00:44:54.671Z,22.30
2019-06-26T00:47:56.644Z,17.77
2019-06-26T00:50:58.591Z,21.27
2019-06-26T00:54:00.512Z,19.03
2019-06-26T00:57:02.448Z,19.57
2019-06-26T01:00:08.047Z,20.93
2019-06-26T01:03:10.267Z,18.03
2019-06-26T01:06:14.093Z,20.73
2019-06-26T01:09:16.075Z,23.20
2019-06-26T01:12:18.054Z,20.23
2019-06-26T01:15:20.076Z,18.57
2019-06-26T01:18:22.074Z,18.20
2019-06-26T01:21:24.797Z,20.53
2019-06-26T01:24:26.815Z,18.63
2019-06-26T01:27:28.863Z,20.77
2019-06-26T01:30:30.785Z,17.13
2019-06-26T01:33:32.640Z,19.07
2019-06-26T01:36:34.667Z,19.10
2019-06-26T01:39:36.524Z,18.37
2019-06-26T01:42:38.450Z,19.20
2019-06-26T01:45:40.594Z,21.43
2019-06-26T01:48:42.550Z,19.13
2019-06-26T01:51:44.472Z,19.37
2019-06-26T01:54:46.376Z,21.30
2019-06-26T01:57:48.282Z,18.73
2019-06-26T02:00:50.188Z,20.93
2019-06-26T02:03:52.755Z,22.77
2019-06-26T02:06:54.646Z,20.23
2019-06-26T02:09:56.666Z,20.20
2019-06-26T02:12:58.610Z,20.37
2019-06-26T02:16:00.619Z,20.17
2019-06-26T02:19:04.456Z,21.40
2019-06-26T02:22:06.405Z,28.30
2019-06-26T02:25:08.507Z,21.90
2019-06-26T02:28:10.525Z,22.27
2019-06-26T02:31:12.521Z,25.47
2019-06-26T02:34:14.782Z,26.40
2019-06-26T02:37:16.702Z,27.67
2019-06-26T02:40:19.152Z,28.97
2019-06-26T02:43:21.364Z,25.23
2019-06-26T02:46:23.549Z,27.47
2019-06-26T02:49:25.541Z,23.07
2019-06-26T02:52:27.426Z,23.00
2019-06-26T02:55:29.338Z,25.37
2019-06-26T02:58:31.314Z,27.60
2019-06-26T03:01:33.228Z,25.00
2019-06-26T03:04:35.167Z,26.07
2019-06-26T03:07:37.117Z,23.03
2019-06-26T03:10:39.108Z,21.57
2019-06-26T03:13:40.976Z,23.53
2019-06-26T03:16:42.982Z,22.13
2019-06-26T03:19:44.896Z,27.97
2019-06-26T03:22:46.854Z,22.73
2019-06-26T03:25:48.756Z,19.27
2019-06-26T03:28:50.744Z,18.07
2019-06-26T03:31:53.953Z,21.37
2019-06-26T03:34:55.933Z,19.57
2019-06-26T03:37:57.901Z,19.47
2019-06-26T03:40:59.949Z,22.90
2019-06-26T03:44:01.889Z,17.40
2019-06-26T03:47:04.063Z,20.53
2019-06-26T03:50:06.345Z,21.53
2019-06-26T03:53:08.340Z,17.27
2019-06-26T03:56:10.228Z,16.40
2019-06-26T03:59:12.234Z,15.75
2019-06-26T04:02:14.249Z,16.27
2019-06-26T04:05:16.180Z,16.97
2019-06-26T04:08:18.227Z,16.00
2019-06-26T04:11:20.101Z,18.73
2019-06-26T04:14:22.070Z,15.32
2019-06-26T04:17:24.040Z,15.85
2019-06-26T04:20:25.980Z,15.18
2019-06-26T04:23:28.392Z,15.60
2019-06-26T04:26:30.455Z,12.78
2019-06-26T04:29:32.392Z,13.10
2019-06-26T04:32:34.297Z,15.05
2019-06-26T04:35:36.275Z,14.50
2019-06-26T04:38:38.156Z,14.78
2019-06-26T04:41:40.095Z,14.93
2019-06-26T04:44:42.026Z,15.83
2019-06-26T04:47:44.228Z,12.55
2019-06-26T04:50:46.179Z,15.63
2019-06-26T04:53:48.183Z,14.78
2019-06-26T04:56:50.146Z,13.10
2019-06-26T04:59:52.141Z,13.35
2019-06-26T05:02:54.027Z,13.50
2019-06-26T05:05:55.973Z,12.82
2019-06-26T05:08:57.856Z,13.25
2019-06-26T05:11:59.867Z,12.65
2019-06-26T05:15:03.654Z,14.55
2019-06-26T05:18:05.610Z,12.75
2019-06-26T05:21:07.526Z,12.33
2019-06-26T05:24:09.527Z,13.88
2019-06-26T05:27:11.416Z,11.57
2019-06-26T05:30:14.076Z,12.58
2019-06-26T05:33:15.984Z,13.00
2019-06-26T05:36:17.968Z,12.28
2019-06-26T05:39:20.020Z,12.90
2019-06-26T05:42:21.927Z,11.20
2019-06-26T05:45:23.863Z,12.25
2019-06-26T05:48:26.032Z,11.90
2019-06-26T05:51:28.037Z,11.75
2019-06-26T05:54:29.991Z,11.53
2019-06-26T05:57:31.936Z,12.45
2019-06-26T06:00:33.910Z,10.43
2019-06-26T06:03:35.803Z,11.25
2019-06-26T06:06:42.163Z,12.18
2019-06-26T06:09:41.662Z,11.63
2019-06-26T06:12:43.654Z,10.65
2019-06-26T06:15:45.658Z,12.25
2019-06-26T06:18:47.616Z,10.32
2019-06-26T06:21:49.580Z,10.32
2019-06-26T06:24:51.503Z,13.68
2019-06-26T06:27:56.229Z,19.07
2019-06-26T06:30:58.216Z,11.20
2019-06-26T06:34:00.173Z,11.15
2019-06-26T06:37:02.114Z,10.53
2019-06-26T06:40:08.186Z,10.48
2019-06-26T06:43:10.060Z,10.80
2019-06-26T06:46:12.061Z,10.70
2019-06-26T06:49:14.099Z,10.63
2019-06-26T06:52:16.876Z,11.00
2019-06-26T06:55:18.943Z,10.32
2019-06-26T06:58:20.894Z,11.28
2019-06-26T07:01:22.798Z,10.10
2019-06-26T07:04:24.715Z,10.80
2019-06-26T07:07:26.659Z,10.68
2019-06-26T07:10:28.579Z,10.23
2019-06-26T07:13:30.554Z,12.68
2019-06-26T07:16:32.592Z,9.60
2019-06-26T07:19:34.579Z,10.20
2019-06-26T07:22:36.628Z,10.08
2019-06-26T07:25:38.556Z,9.70
2019-06-26T07:28:40.532Z,10.20
2019-06-26T07:31:42.456Z,12.23
2019-06-26T07:34:44.513Z,10.20
2019-06-26T07:37:46.462Z,9.85
2019-06-26T07:40:48.464Z,10.95
2019-06-26T07:43:50.337Z,10.40
2019-06-26T07:46:52.321Z,11.12
2019-06-26T07:49:54.404Z,9.20
2019-06-26T07:52:56.315Z,11.50
2019-06-26T07:55:58.265Z,9.48
2019-06-26T07:59:00.196Z,10.20
2019-06-26T08:02:03.476Z,10.25
2019-06-26T08:05:06.791Z,9.38
2019-06-26T08:08:08.744Z,9.83
2019-06-26T08:11:10.622Z,9.90
2019-06-26T08:14:12.591Z,10.53
2019-06-26T08:17:14.589Z,9.98
2019-06-26T08:20:17.063Z,10.35
2019-06-26T08:23:19.076Z,12.65
2019-06-26T08:26:20.982Z,10.58
2019-06-26T08:29:23.951Z,11.97
2019-06-26T08:32:26.167Z,10.08
2019-06-26T08:35:28.511Z,10.40
2019-06-26T08:38:30.506Z,11.85
2019-06-26T08:41:32.430Z,10.30
2019-06-26T08:44:34.398Z,10.65
2019-06-26T08:47:36.305Z,11.10
2019-06-26T08:50:38.350Z,11.60
2019-06-26T08:53:40.266Z,11.05
2019-06-26T08:56:42.221Z,12.15
2019-06-26T08:59:44.155Z,10.88
2019-06-26T09:02:46.697Z,9.05
2019-06-26T09:05:48.906Z,10.28
2019-06-26T09:08:50.910Z,9.73
2019-06-26T09:11:52.822Z,11.12
2019-06-26T09:14:54.829Z,10.93
2019-06-26T09:17:56.779Z,12.00
2019-06-26T09:20:58.766Z,13.03
2019-06-26T09:24:00.701Z,11.20
2019-06-26T09:27:02.710Z,10.03
2019-06-26T09:30:06.195Z,17.32
2019-06-26T09:33:08.303Z,10.08
2019-06-26T09:36:10.221Z,10.05
2019-06-26T09:39:12.194Z,10.50
2019-06-26T09:42:14.218Z,11.35
2019-06-26T09:45:16.397Z,10.63
2019-06-26T09:48:18.380Z,9.93
2019-06-26T09:51:20.535Z,10.38
2019-06-26T09:54:22.508Z,10.82
2019-06-26T09:57:24.479Z,13.20
2019-06-26T10:00:27.014Z,9.13
2019-06-26T10:03:29.099Z,10.98
2019-06-26T10:06:31.047Z,11.15
2019-06-26T10:09:33.096Z,24.57
2019-06-26T10:12:35.178Z,10.18
2019-06-26T10:15:37.093Z,7.78
2019-06-26T10:18:39.033Z,8.93
2019-06-26T10:21:40.958Z,8.88
2019-06-26T10:24:42.911Z,9.28
2019-06-26T10:27:44.954Z,10.58
2019-06-26T10:30:48.477Z,8.33
2019-06-26T10:33:50.386Z,12.13
2019-06-26T10:36:52.657Z,8.63
2019-06-26T10:39:56.025Z,8.00
2019-06-26T10:42:59.988Z,8.63
2019-06-26T10:46:02.704Z,8.05
2019-06-26T10:49:04.681Z,7.67
2019-06-26T10:52:06.740Z,9.63
2019-06-26T10:55:10.557Z,12.20
2019-06-26T10:58:12.440Z,8.40
2019-06-26T11:01:14.432Z,9.43
2019-06-26T11:04:16.349Z,8.08
2019-06-26T11:07:18.323Z,8.93
2019-06-26T11:10:20.630Z,8.58
2019-06-26T11:13:22.640Z,8.03
2019-06-26T11:16:25.915Z,8.30
2019-06-26T11:19:42.614Z,8.28
2019-06-26T11:22:33.179Z,13.88
2019-06-26T11:25:35.176Z,8.50
2019-06-26T11:28:37.182Z,9.03
2019-06-26T11:31:39.145Z,8.58
2019-06-26T11:34:41.061Z,8.53
2019-06-26T11:37:43.022Z,9.68
2019-06-26T11:40:45.001Z,9.20
2019-06-26T11:43:47.225Z,9.18
2019-06-26T11:46:49.104Z,9.60
2019-06-26T11:49:59.881Z,9.55
2019-06-26T11:52:55.269Z,8.88
2019-06-26T11:55:57.180Z,9.83
2019-06-26T11:58:59.262Z,8.40
2019-06-26T12:02:01.260Z,9.55
2019-06-26T12:05:05.425Z,9.18
2019-06-26T12:08:08.450Z,9.60
2019-06-26T12:11:10.377Z,8.28
2019-06-26T12:14:12.338Z,9.70
2019-06-26T12:17:14.866Z,9.20
2019-06-26T12:20:19.215Z,9.15
2019-06-26T12:23:20.811Z,8.70
2019-06-26T12:26:22.700Z,9.95
2019-06-26T12:29:24.667Z,10.78
2019-06-26T12:32:27.535Z,14.23
2019-06-26T12:35:29.539Z,11.70
2019-06-26T12:38:31.462Z,11.05
2019-06-26T12:41:33.389Z,11.35
2019-06-26T12:44:35.313Z,10.25
2019-06-26T12:47:38.358Z,10.45
2019-06-26T12:50:40.336Z,10.65
2019-06-26T12:53:42.873Z,10.32
2019-06-26T12:56:44.880Z,10.25
2019-06-26T12:59:56.858Z,10.90
2019-06-26T13:02:50.755Z,10.85
2019-06-26T13:05:52.681Z,10.58
2019-06-26T13:08:54.668Z,10.63
2019-06-26T13:11:56.691Z,9.95
2019-06-26T13:14:58.594Z,10.10
2019-06-26T13:18:01.553Z,9.83
2019-06-26T13:21:05.200Z,10.15
2019-06-26T13:24:07.534Z,9.13
2019-06-26T13:27:09.580Z,10.65
2019-06-26T13:30:13.900Z,9.90
2019-06-26T13:33:15.814Z,18.25
2019-06-26T13:36:17.776Z,10.38
2019-06-26T13:39:19.739Z,12.58
2019-06-26T13:42:21.708Z,10.53
2019-06-26T13:45:24.135Z,11.10
2019-06-26T13:48:26.138Z,10.32
2019-06-26T13:51:28.055Z,11.33
2019-06-26T13:54:30.647Z,11.90
2019-06-26T13:57:32.755Z,9.85
2019-06-26T14:00:34.816Z,12.28
2019-06-26T14:03:36.789Z,11.20
2019-06-26T14:06:38.675Z,10.93
2019-06-26T14:09:40.639Z,11.55
2019-06-26T14:12:43.184Z,11.15
2019-06-26T14:15:45.678Z,10.98
2019-06-26T14:18:48.083Z,10.63
2019-06-26T14:21:49.976Z,9.95
2019-06-26T14:24:54.233Z,12.70
2019-06-26T14:27:55.859Z,10.93
2019-06-26T14:30:57.803Z,16.87
2019-06-26T14:33:59.783Z,14.10
2019-06-26T14:37:01.690Z,10.60
2019-06-26T14:40:08.988Z,12.13
2019-06-26T14:43:10.958Z,13.28
2019-06-26T14:46:12.935Z,12.25
2019-06-26T14:49:16.147Z,14.38
2019-06-26T14:52:18.119Z,13.72
2019-06-26T14:55:21.805Z,11.88
2019-06-26T14:58:23.878Z,12.60
2019-06-26T15:01:25.817Z,13.58
2019-06-26T15:04:27.839Z,12.00
2019-06-26T15:07:29.763Z,13.10
2019-06-26T15:10:33.586Z,12.15
2019-06-26T15:13:35.505Z,12.68
2019-06-26T15:16:37.521Z,11.90
2019-06-26T15:19:39.460Z,17.07
2019-06-26T15:22:41.505Z,14.15
2019-06-26T15:25:43.506Z,12.70
2019-06-26T15:28:45.495Z,12.10
2019-06-26T15:31:47.464Z,12.58
2019-06-26T15:34:49.432Z,14.60
2019-06-26T15:37:51.338Z,12.58
2019-06-26T15:40:53.283Z,14.50
2019-06-26T15:43:55.313Z,13.43
2019-06-26T15:46:57.255Z,12.63
2019-06-26T15:49:59.883Z,13.88
2019-06-26T15:53:01.803Z,15.95
2019-06-26T15:56:03.982Z,12.35
2019-06-26T15:59:05.932Z,12.82
2019-06-26T16:02:07.932Z,12.07
2019-06-26T16:05:09.999Z,12.73
2019-06-26T16:08:11.973Z,12.37
2019-06-26T16:11:15.143Z,12.50
2019-06-26T16:14:17.129Z,12.50
2019-06-26T16:17:39.258Z,11.88
2019-06-26T16:20:42.427Z,11.90
2019-06-26T16:23:44.367Z,12.73
2019-06-26T16:26:47.094Z,10.98
2019-06-26T16:29:49.751Z,15.28
2019-06-26T16:32:56.686Z,14.68
2019-06-26T16:35:57.656Z,13.90
2019-06-26T16:39:01.043Z,15.72
2019-06-26T16:42:04.826Z,11.35
2019-06-26T16:45:10.403Z,14.50
2019-06-26T16:48:12.474Z,14.00
2019-06-26T16:51:14.384Z,9.93
2019-06-26T16:54:16.430Z,14.53
2019-06-26T16:57:18.785Z,10.82
2019-06-26T17:00:20.872Z,10.90
2019-06-26T17:03:22.902Z,14.23
2019-06-26T17:06:26.733Z,10.53
2019-06-26T17:09:28.908Z,10.60
2019-06-26T17:12:30.972Z,9.48
2019-06-26T17:15:32.855Z,16.55
2019-06-26T17:18:34.863Z,10.63
2019-06-26T17:21:36.817Z,26.75
2019-06-26T17:24:38.796Z,14.90
2019-06-26T17:27:40.840Z,14.98
2019-06-26T17:30:44.501Z,10.43
2019-06-26T17:33:46.795Z,16.75
2019-06-26T17:36:48.799Z,13.08
2019-06-26T17:39:50.812Z,10.43
2019-06-26T17:42:53.967Z,11.25
2019-06-26T17:45:55.935Z,12.07
2019-06-26T17:48:59.002Z,10.65
2019-06-26T17:52:01.980Z,10.18
2019-06-26T17:55:06.413Z,16.32
2019-06-26T17:58:10.189Z,13.83
2019-06-26T18:01:14.728Z,13.18
2019-06-26T18:04:16.704Z,11.45
2019-06-26T18:07:18.659Z,11.78
2019-06-26T18:10:20.639Z,10.43
2019-06-26T18:13:24.147Z,16.17
2019-06-26T18:16:26.154Z,11.80
2019-06-26T18:19:30.734Z,10.70
2019-06-26T18:22:32.675Z,12.25
2019-06-26T18:25:34.688Z,13.68
2019-06-26T18:28:36.642Z,18.67
2019-06-26T18:31:38.675Z,14.55
2019-06-26T18:34:40.646Z,12.20
2019-06-26T18:37:42.657Z,13.97
2019-06-26T18:40:46.276Z,14.07
2019-06-26T18:43:48.238Z,11.10
2019-06-26T18:46:50.818Z,12.60
2019-06-26T18:49:52.825Z,13.20
2019-06-26T18:52:54.797Z,13.17
2019-06-26T18:55:58.128Z,13.37
2019-06-26T18:59:01.700Z,12.27
2019-06-26T19:02:05.523Z,12.80
2019-06-26T19:05:10.389Z,14.33
2019-06-26T19:08:12.555Z,14.40
2019-06-26T19:11:14.561Z,12.50
2019-06-26T19:14:16.583Z,13.30
2019-06-26T19:17:20.432Z,15.80
2019-06-26T19:20:22.511Z,14.73
2019-06-26T19:23:24.529Z,13.67
2019-06-26T19:26:27.565Z,13.90
2019-06-26T19:29:29.670Z,16.73
2019-06-26T19:32:31.666Z,13.80
2019-06-26T19:35:33.726Z,17.20
2019-06-26T19:38:35.711Z,14.53
2019-06-26T19:41:37.787Z,14.73
2019-06-26T19:44:39.916Z,15.50
2019-06-26T19:47:42.245Z,13.87
2019-06-26T19:50:44.259Z,16.00
2019-06-26T19:53:47.793Z,15.20
2019-06-26T19:56:50.167Z,18.80
2019-06-26T19:59:52.381Z,15.33
2019-06-26T20:02:54.389Z,15.10
2019-06-26T20:05:56.450Z,16.00
2019-06-26T20:08:58.416Z,15.07
2019-06-26T20:12:00.772Z,16.67
2019-06-26T20:15:04.668Z,17.80
2019-06-26T20:18:06.666Z,16.43
2019-06-26T20:21:08.668Z,17.23
2019-06-26T20:24:14.226Z,14.83
2019-06-26T20:27:17.109Z,16.93
2019-06-26T20:30:22.750Z,16.97
2019-06-26T20:33:26.598Z,15.70
2019-06-26T20:36:28.561Z,16.30
2019-06-26T20:39:31.022Z,19.73
2019-06-26T20:42:32.938Z,18.10
2019-06-26T20:45:34.952Z,16.40
2019-06-26T20:48:36.880Z,20.27
2019-06-26T20:51:40.052Z,27.77
2019-06-26T20:54:56.811Z,17.83
2019-06-26T20:57:48.881Z,17.87
2019-06-26T21:00:51.056Z,15.43
2019-06-26T21:03:54.921Z,18.90
2019-06-26T21:06:56.801Z,19.60
2019-06-26T21:09:58.811Z,14.80
2019-06-26T21:13:03.316Z,16.60
2019-06-26T21:16:07.522Z,18.87
2019-06-26T21:19:09.431Z,18.10
2019-06-26T21:22:12.779Z,15.73
2019-06-26T21:25:18.956Z,19.70
2019-06-26T21:28:18.552Z,16.53
2019-06-26T21:31:20.481Z,34.67
2019-06-26T21:34:22.488Z,15.40
2019-06-26T21:37:24.500Z,16.10
2019-06-26T21:40:26.380Z,12.50
2019-06-26T21:43:28.412Z,16.27
2019-06-26T21:46:30.376Z,13.53
2019-06-26T21:49:32.376Z,16.47
2019-06-26T21:52:34.380Z,18.90
2019-06-26T21:55:36.565Z,18.63
2019-06-26T21:58:56.656Z,53.70
2019-06-26T22:02:17.519Z,18.40
2019-06-26T22:05:22.750Z,13.87
2019-06-26T22:08:42.911Z,16.33
2019-06-26T22:11:45.083Z,21.30
2019-06-26T22:14:47.099Z,19.03
2019-06-26T22:17:48.997Z,17.43
2019-06-26T22:20:50.986Z,14.67
2019-06-26T22:23:53.170Z,16.73
2019-06-26T22:26:56.170Z,12.57
2019-06-26T22:29:58.189Z,13.27
2019-06-26T22:33:00.129Z,16.03
2019-06-26T22:36:02.098Z,15.40
2019-06-26T22:39:05.131Z,15.40
2019-06-26T22:42:07.853Z,12.57
2019-06-26T22:45:10.165Z,13.27
2019-06-26T22:48:12.052Z,16.70
2019-06-26T22:51:14.094Z,18.37
2019-06-26T22:54:19.570Z,29.10
2019-06-26T22:57:19.992Z,17.70
2019-06-26T23:00:22.231Z,17.23
2019-06-26T23:03:24.280Z,13.73
2019-06-26T23:06:26.236Z,14.87
2019-06-26T23:09:28.253Z,20.30
2019-06-26T23:12:30.204Z,18.20
2019-06-26T23:15:32.216Z,21.93
2019-06-26T23:18:34.125Z,14.67
2019-06-26T23:21:36.086Z,20.53
2019-06-26T23:24:37.985Z,14.27
2019-06-26T23:27:39.996Z,18.50
2019-06-26T23:30:41.976Z,15.53
2019-06-26T23:33:44.019Z,21.77
2019-06-26T23:36:45.972Z,14.47
2019-06-26T23:39:47.944Z,21.97
2019-06-26T23:42:49.858Z,17.60
2019-06-26T23:45:52.267Z,20.87
2019-06-26T23:48:54.200Z,18.30
2019-06-26T23:51:56.152Z,19.00
2019-06-26T23:54:58.127Z,23.90
2019-06-26T23:58:00.104Z,23.07
